Cap Felix — ONFH — position and weather

sailwx.info

Track history (hours):
 
Tides and Currents Weather Stations Pressure Air Temp Water Temp Dewpoint Dewpoint Depression Visibility Wind Speed Wind Dir Waves Ship Positions

Cap Felix

Last reported at 2017-May-22 05:31 UTC. Time now 2017-Jun-24 22:38 UTC.
Position N 15°33' W 018°10'.
Warning: this ship's position is 33 days out of date.

Length 275 m; draft 9 m.

Type: Tanker. MMSI: 205517000.

Date/timePositionNaut miles runAvg speedWind from/ knotsBaromVisibWave heightAir tempDewpointWater temp
2017-May-22 05:31N 15°33' W 018°10'0 7.7
2017-May-22 05:30N 15°33' W 018°10'5 8.2
2017-May-22 04:52N 15°38' W 018°10'3 8.3
2017-May-22 04:30N 15°41' W 018°10'4 8.1
2017-May-22 04:00N 15°45' W 018°10'  
2017-May-18 05:05N 27°26' W 014°12'1 8.4
2017-May-18 05:00N 27°27' W 014°11'4 8.1
2017-May-18 04:31N 27°30' W 014°08'5 8.2
2017-May-18 03:55N 27°34' W 014°05'3 8.2
2017-May-18 03:30N 27°36' W 014°02'4 8.7
2017-May-18 03:00N 27°39' W 013°59'4 8.8
2017-May-18 02:30N 27°43' W 013°56'4 8.7
2017-May-18 02:00N 27°46' W 013°53'4 8.7
2017-May-18 01:31N 27°49' W 013°50'4 8.5
2017-May-18 01:00N 27°53' W 013°47'4 8.7
2017-May-18 00:30N 27°56' W 013°44'4 8.8
2017-May-18 00:00N 27°60' W 013°40'4 8.6
2017-May-17 23:30N 28°03' W 013°38'4 8.7
2017-May-17 23:00N 28°07' W 013°35'4 8.7
2017-May-17 22:30N 28°10' W 013°32'4 8.7
2017-May-17 22:00N 28°14' W 013°29'4 8.5
2017-May-17 21:30N 28°17' W 013°26'5 8.7
2017-May-17 20:58N 28°21' W 013°23'5 8.6
2017-May-17 20:25N 28°25' W 013°20'4 8.5
2017-May-17 19:59N 28°28' W 013°18'4 8.6
2017-May-17 19:30N 28°32' W 013°16'5 8.7
2017-May-17 18:57N 28°35' W 013°12'4 8.8
2017-May-17 18:30N 28°39' W 013°10'5 8.5
2017-May-17 17:58N 28°42' W 013°07'4 8.4
2017-May-17 17:28N 28°46' W 013°04'4 8.5
2017-May-17 17:00N 28°49' W 013°02'5 8.6
2017-May-17 16:27N 28°53' W 012°59'4 8.5
2017-May-17 16:00N 28°56' W 012°56'4 8.2
2017-May-17 15:30N 28°59' W 012°53'4 8.1
2017-May-17 15:00N 29°03' W 012°51'8 8.0
2017-May-17 13:59N 29°10' W 012°46'4 7.9
2017-May-17 13:28N 29°13' W 012°43'4 8.0
2017-May-17 12:55N 29°17' W 012°41'3 8.1
2017-May-17 12:30N 29°19' W 012°38'4 8.1
2017-May-17 12:00N 29°23' W 012°36'4 8.2
2017-May-17 11:30N 29°26' W 012°33'4 8.3
2017-May-17 11:00N 29°30' W 012°30'4 8.4
2017-May-17 10:30N 29°33' W 012°27'5 8.3
2017-May-17 09:55N 29°37' W 012°24'3 8.3
2017-May-17 09:30N 29°40' W 012°22'4 8.3
2017-May-17 09:00N 29°43' W 012°19'7 8.2
2017-May-17 08:12N 29°49' W 012°15'2 8.2
2017-May-17 08:00N 29°50' W 012°14'5 8.5
2017-May-17 07:27N 29°54' W 012°11'4 8.5
2017-May-17 07:00N 29°57' W 012°09'4 8.4
2017-May-17 06:30N 30°01' W 012°06'4 8.3
2017-May-17 06:00N 30°04' W 012°03'4 8.3
2017-May-17 05:30N 30°07' W 012°00'4 8.3
2017-May-17 05:00N 30°11' W 011°57'4 8.3
2017-May-17 04:30N 30°14' W 011°55'4 8.5
2017-May-17 04:00N 30°18' W 011°52'4 8.6
2017-May-17 03:29N 30°22' W 011°49'5 8.5
2017-May-17 02:53N 30°26' W 011°46'3 8.4
2017-May-17 02:30N 30°28' W 011°44'4 8.6
2017-May-17 02:00N 30°32' W 011°41'4 8.8
2017-May-17 01:31N 30°36' W 011°38'4 9.0
2017-May-17 01:00N 30°39' W 011°35'4 9.0
2017-May-17 00:30N 30°43' W 011°32'4 8.9
2017-May-17 00:00N 30°47' W 011°29'4 8.7
2017-May-16 23:30N 30°50' W 011°26'4 8.7
2017-May-16 23:00N 30°54' W 011°23'4 8.5
2017-May-16 22:30N 30°57' W 011°20'4 8.5
2017-May-16 22:00N 31°01' W 011°18'4 8.4
2017-May-16 21:30N 31°04' W 011°15'4 8.2
2017-May-16 21:00N 31°07' W 011°12'4 8.2
2017-May-16 20:30N 31°11' W 011°09'4 8.2
2017-May-16 20:00N 31°14' W 011°07'4 8.1
2017-May-16 19:30N 31°18' W 011°04'4 8.2
2017-May-16 19:00N 31°21' W 011°01'4 8.1
2017-May-16 18:30N 31°24' W 010°59'4 8.0
2017-May-16 18:00N 31°28' W 010°56'4 8.0
2017-May-16 17:30N 31°31' W 010°53'4 8.1
2017-May-16 17:00N 31°34' W 010°51'4 8.2
2017-May-16 16:30N 31°38' W 010°48'4 8.0
2017-May-16 16:00N 31°41' W 010°45'4 8.0
2017-May-16 15:30N 31°44' W 010°43'4 8.1
2017-May-16 15:00N 31°48' W 010°40'8 8.5
2017-May-16 14:00N 31°55' W 010°34'4 8.8
2017-May-16 13:30N 31°58' W 010°31'4 8.6
2017-May-16 13:00N 32°02' W 010°28'4 8.5
2017-May-16 12:30N 32°05' W 010°25'4 8.2
2017-May-16 12:00N 32°08' W 010°22'4 8.2
2017-May-16 11:30N 32°11' W 010°19'6 8.2
2017-May-16 10:49N 32°15' W 010°14'3 8.1
2017-May-16 10:30N 32°17' W 010°12'4 8.0
2017-May-16 10:00N 32°20' W 010°09'4 8.1
2017-May-16 09:30N 32°23' W 010°06'714.0
2017-May-16 09:00N 32°28' W 010°00'815.7
2017-May-16 08:30N 32°34' W 009°54'815.7
2017-May-16 08:00N 32°40' W 009°48'815.6
2017-May-16 07:30N 32°46' W 009°42'815.1
2017-May-16 07:00N 32°51' W 009°36'610.2
2017-May-16 06:23N 32°56' W 009°30'3 7.8
2017-May-16 06:00N 32°58' W 009°28'4 7.9
2017-May-16 05:30N 33°01' W 009°25'4 7.7
2017-May-16 05:00N 33°04' W 009°22'6 7.8
2017-May-16 04:11N 33°09' W 009°17'3 8.1
2017-May-16 03:52N 33°11' W 009°15'4 8.0
2017-May-16 03:20N 33°14' W 009°11'3 7.9
2017-May-16 02:57N 33°16' W 009°09'4 7.8
2017-May-16 02:30N 33°19' W 009°06'5 7.9
2017-May-16 01:53N 33°23' W 009°02'6 8.0
2017-May-16 01:07N 33°27' W 008°58'1 8.2
2017-May-16 01:00N 33°28' W 008°57'4 8.1
2017-May-16 00:30N 33°31' W 008°54'4 8.2
2017-May-16 00:00N 33°34' W 008°50'4 8.2
2017-May-15 23:30N 33°37' W 008°47'6 8.1
2017-May-15 22:47N 33°42' W 008°43'2 8.2
2017-May-15 22:30N 33°43' W 008°41'4 8.1
2017-May-15 22:00N 33°47' W 008°38'4 7.9
2017-May-15 21:30N 33°50' W 008°35'4 7.8
2017-May-15 21:00N 33°52' W 008°32'4 7.7
2017-May-15 20:30N 33°55' W 008°28'4 7.8
2017-May-15 20:00N 33°58' W 008°25'4 7.7
2017-May-15 19:27N 34°01' W 008°21'3 7.8
2017-May-15 19:00N 34°03' W 008°19'4 7.6
2017-May-15 18:30N 34°06' W 008°16'4 7.6
2017-May-15 18:00N 34°09' W 008°13'4 7.6
2017-May-15 17:30N 34°12' W 008°10'4 7.7
2017-May-15 16:59N 34°15' W 008°07'4 7.6
2017-May-15 16:30N 34°18' W 008°04'4 7.5
2017-May-15 16:00N 34°21' W 008°01'4 7.6
2017-May-15 15:30N 34°23' W 007°57'4 7.8
2017-May-15 15:00N 34°26' W 007°54'8 7.9
2017-May-15 14:00N 34°32' W 007°48'4 7.9
2017-May-15 13:29N 34°35' W 007°45'4 7.8
2017-May-15 13:00N 34°38' W 007°42'4 7.9
2017-May-15 12:30N 34°41' W 007°38'4 7.9
2017-May-15 12:00N 34°44' W 007°35'5 9.1
2017-May-15 11:30N 34°47' W 007°31'510.2
2017-May-15 11:00N 34°51' W 007°27'510.0
2017-May-15 10:30N 34°55' W 007°23'6 9.9
2017-May-15 09:52N 34°60' W 007°19'4 9.7
2017-May-15 09:30N 35°03' W 007°16'7 9.9
2017-May-15 08:45N 35°08' W 007°09'210.0
2017-May-15 08:30N 35°09' W 007°07'510.3
2017-May-15 08:00N 35°13' W 007°03'510.3
2017-May-15 07:30N 35°17' W 006°59'510.0
2017-May-15 07:00N 35°21' W 006°55'810.1
2017-May-15 06:13N 35°27' W 006°48'310.0
2017-May-15 05:54N 35°29' W 006°46'510.2
2017-May-15 05:24N 35°33' W 006°42'510.4
2017-May-15 04:53N 35°37' W 006°37'410.4
2017-May-15 04:28N 35°40' W 006°33'510.1
2017-May-15 04:00N 35°43' W 006°29'510.4
2017-May-15 03:30N 35°46' W 006°24'510.8
2017-May-15 03:00N 35°48' W 006°18'510.9
2017-May-15 02:30N 35°51' W 006°12'510.5
2017-May-15 02:00N 35°54' W 006°06'  
Track history (hours):
 
Tides and Currents Weather Stations Pressure Air Temp Water Temp Dewpoint Dewpoint Depression Visibility Wind Speed Wind Dir Waves Ship Positions

Cap Felix

Last reported at 2017-May-22 05:31 UTC. Time now 2017-Jun-24 22:38 UTC.
Position N 15°33' W 018°10'.
Warning: this ship's position is 33 days out of date.

Length 275 m; draft 9 m.

Type: Tanker. MMSI: 205517000.

Date/timePositionNaut miles runAvg speedWind from/ knotsBaromVisibWave heightAir tempDewpointWater temp
2017-May-22 05:31N 15°33' W 018°10'0 7.7
2017-May-22 05:30N 15°33' W 018°10'5 8.2
2017-May-22 04:52N 15°38' W 018°10'3 8.3
2017-May-22 04:30N 15°41' W 018°10'4 8.1
2017-May-22 04:00N 15°45' W 018°10'  
2017-May-18 05:05N 27°26' W 014°12'1 8.4
2017-May-18 05:00N 27°27' W 014°11'4 8.1
2017-May-18 04:31N 27°30' W 014°08'5 8.2
2017-May-18 03:55N 27°34' W 014°05'3 8.2
2017-May-18 03:30N 27°36' W 014°02'4 8.7
2017-May-18 03:00N 27°39' W 013°59'4 8.8
2017-May-18 02:30N 27°43' W 013°56'4 8.7
2017-May-18 02:00N 27°46' W 013°53'4 8.7
2017-May-18 01:31N 27°49' W 013°50'4 8.5
2017-May-18 01:00N 27°53' W 013°47'4 8.7
2017-May-18 00:30N 27°56' W 013°44'4 8.8
2017-May-18 00:00N 27°60' W 013°40'4 8.6
2017-May-17 23:30N 28°03' W 013°38'4 8.7
2017-May-17 23:00N 28°07' W 013°35'4 8.7
2017-May-17 22:30N 28°10' W 013°32'4 8.7
2017-May-17 22:00N 28°14' W 013°29'4 8.5
2017-May-17 21:30N 28°17' W 013°26'5 8.7
2017-May-17 20:58N 28°21' W 013°23'5 8.6
2017-May-17 20:25N 28°25' W 013°20'4 8.5
2017-May-17 19:59N 28°28' W 013°18'4 8.6
2017-May-17 19:30N 28°32' W 013°16'5 8.7
2017-May-17 18:57N 28°35' W 013°12'4 8.8
2017-May-17 18:30N 28°39' W 013°10'5 8.5
2017-May-17 17:58N 28°42' W 013°07'4 8.4
2017-May-17 17:28N 28°46' W 013°04'4 8.5
2017-May-17 17:00N 28°49' W 013°02'5 8.6
2017-May-17 16:27N 28°53' W 012°59'4 8.5
2017-May-17 16:00N 28°56' W 012°56'4 8.2
2017-May-17 15:30N 28°59' W 012°53'4 8.1
2017-May-17 15:00N 29°03' W 012°51'8 8.0
2017-May-17 13:59N 29°10' W 012°46'4 7.9
2017-May-17 13:28N 29°13' W 012°43'4 8.0
2017-May-17 12:55N 29°17' W 012°41'3 8.1
2017-May-17 12:30N 29°19' W 012°38'4 8.1
2017-May-17 12:00N 29°23' W 012°36'4 8.2
2017-May-17 11:30N 29°26' W 012°33'4 8.3
2017-May-17 11:00N 29°30' W 012°30'4 8.4
2017-May-17 10:30N 29°33' W 012°27'5 8.3
2017-May-17 09:55N 29°37' W 012°24'3 8.3
2017-May-17 09:30N 29°40' W 012°22'4 8.3
2017-May-17 09:00N 29°43' W 012°19'7 8.2
2017-May-17 08:12N 29°49' W 012°15'2 8.2
2017-May-17 08:00N 29°50' W 012°14'5 8.5
2017-May-17 07:27N 29°54' W 012°11'4 8.5
2017-May-17 07:00N 29°57' W 012°09'4 8.4
2017-May-17 06:30N 30°01' W 012°06'4 8.3
2017-May-17 06:00N 30°04' W 012°03'4 8.3
2017-May-17 05:30N 30°07' W 012°00'4 8.3
2017-May-17 05:00N 30°11' W 011°57'4 8.3
2017-May-17 04:30N 30°14' W 011°55'4 8.5
2017-May-17 04:00N 30°18' W 011°52'4 8.6
2017-May-17 03:29N 30°22' W 011°49'5 8.5
2017-May-17 02:53N 30°26' W 011°46'3 8.4
2017-May-17 02:30N 30°28' W 011°44'4 8.6
2017-May-17 02:00N 30°32' W 011°41'4 8.8
2017-May-17 01:31N 30°36' W 011°38'4 9.0
2017-May-17 01:00N 30°39' W 011°35'4 9.0
2017-May-17 00:30N 30°43' W 011°32'4 8.9
2017-May-17 00:00N 30°47' W 011°29'4 8.7
2017-May-16 23:30N 30°50' W 011°26'4 8.7
2017-May-16 23:00N 30°54' W 011°23'4 8.5
2017-May-16 22:30N 30°57' W 011°20'4 8.5
2017-May-16 22:00N 31°01' W 011°18'4 8.4
2017-May-16 21:30N 31°04' W 011°15'4 8.2
2017-May-16 21:00N 31°07' W 011°12'4 8.2
2017-May-16 20:30N 31°11' W 011°09'4 8.2
2017-May-16 20:00N 31°14' W 011°07'4 8.1
2017-May-16 19:30N 31°18' W 011°04'4 8.2
2017-May-16 19:00N 31°21' W 011°01'4 8.1
2017-May-16 18:30N 31°24' W 010°59'4 8.0
2017-May-16 18:00N 31°28' W 010°56'4 8.0
2017-May-16 17:30N 31°31' W 010°53'4 8.1
2017-May-16 17:00N 31°34' W 010°51'4 8.2
2017-May-16 16:30N 31°38' W 010°48'4 8.0
2017-May-16 16:00N 31°41' W 010°45'4 8.0
2017-May-16 15:30N 31°44' W 010°43'4 8.1
2017-May-16 15:00N 31°48' W 010°40'8 8.5
2017-May-16 14:00N 31°55' W 010°34'4 8.8
2017-May-16 13:30N 31°58' W 010°31'4 8.6
2017-May-16 13:00N 32°02' W 010°28'4 8.5
2017-May-16 12:30N 32°05' W 010°25'4 8.2
2017-May-16 12:00N 32°08' W 010°22'4 8.2
2017-May-16 11:30N 32°11' W 010°19'6 8.2
2017-May-16 10:49N 32°15' W 010°14'3 8.1
2017-May-16 10:30N 32°17' W 010°12'4 8.0
2017-May-16 10:00N 32°20' W 010°09'4 8.1
2017-May-16 09:30N 32°23' W 010°06'714.0
2017-May-16 09:00N 32°28' W 010°00'815.7
2017-May-16 08:30N 32°34' W 009°54'815.7
2017-May-16 08:00N 32°40' W 009°48'815.6
2017-May-16 07:30N 32°46' W 009°42'815.1
2017-May-16 07:00N 32°51' W 009°36'610.2
2017-May-16 06:23N 32°56' W 009°30'3 7.8
2017-May-16 06:00N 32°58' W 009°28'4 7.9
2017-May-16 05:30N 33°01' W 009°25'4 7.7
2017-May-16 05:00N 33°04' W 009°22'6 7.8
2017-May-16 04:11N 33°09' W 009°17'3 8.1
2017-May-16 03:52N 33°11' W 009°15'4 8.0
2017-May-16 03:20N 33°14' W 009°11'3 7.9
2017-May-16 02:57N 33°16' W 009°09'4 7.8
2017-May-16 02:30N 33°19' W 009°06'5 7.9
2017-May-16 01:53N 33°23' W 009°02'6 8.0
2017-May-16 01:07N 33°27' W 008°58'1 8.2
2017-May-16 01:00N 33°28' W 008°57'4 8.1
2017-May-16 00:30N 33°31' W 008°54'4 8.2
2017-May-16 00:00N 33°34' W 008°50'4 8.2
2017-May-15 23:30N 33°37' W 008°47'6 8.1
2017-May-15 22:47N 33°42' W 008°43'2 8.2
2017-May-15 22:30N 33°43' W 008°41'4 8.1
2017-May-15 22:00N 33°47' W 008°38'4 7.9
2017-May-15 21:30N 33°50' W 008°35'4 7.8
2017-May-15 21:00N 33°52' W 008°32'4 7.7
2017-May-15 20:30N 33°55' W 008°28'4 7.8
2017-May-15 20:00N 33°58' W 008°25'4 7.7
2017-May-15 19:27N 34°01' W 008°21'3 7.8
2017-May-15 19:00N 34°03' W 008°19'4 7.6
2017-May-15 18:30N 34°06' W 008°16'4 7.6
2017-May-15 18:00N 34°09' W 008°13'4 7.6
2017-May-15 17:30N 34°12' W 008°10'4 7.7
2017-May-15 16:59N 34°15' W 008°07'4 7.6
2017-May-15 16:30N 34°18' W 008°04'4 7.5
2017-May-15 16:00N 34°21' W 008°01'4 7.6
2017-May-15 15:30N 34°23' W 007°57'4 7.8
2017-May-15 15:00N 34°26' W 007°54'8 7.9
2017-May-15 14:00N 34°32' W 007°48'4 7.9
2017-May-15 13:29N 34°35' W 007°45'4 7.8
2017-May-15 13:00N 34°38' W 007°42'4 7.9
2017-May-15 12:30N 34°41' W 007°38'4 7.9
2017-May-15 12:00N 34°44' W 007°35'5 9.1
2017-May-15 11:30N 34°47' W 007°31'510.2
2017-May-15 11:00N 34°51' W 007°27'510.0
2017-May-15 10:30N 34°55' W 007°23'6 9.9
2017-May-15 09:52N 34°60' W 007°19'4 9.7
2017-May-15 09:30N 35°03' W 007°16'7 9.9
2017-May-15 08:45N 35°08' W 007°09'210.0
2017-May-15 08:30N 35°09' W 007°07'510.3
2017-May-15 08:00N 35°13' W 007°03'510.3
2017-May-15 07:30N 35°17' W 006°59'510.0
2017-May-15 07:00N 35°21' W 006°55'810.1
2017-May-15 06:13N 35°27' W 006°48'310.0
2017-May-15 05:54N 35°29' W 006°46'510.2
2017-May-15 05:24N 35°33' W 006°42'510.4
2017-May-15 04:53N 35°37' W 006°37'410.4
2017-May-15 04:28N 35°40' W 006°33'510.1
2017-May-15 04:00N 35°43' W 006°29'510.4
2017-May-15 03:30N 35°46' W 006°24'510.8
2017-May-15 03:00N 35°48' W 006°18'510.9
2017-May-15 02:30N 35°51' W 006°12'510.5
2017-May-15 02:00N 35°54' W 006°06'  

Dump ship's entire track history